sensor_id;sensor_type;location;lat;lon;timestamp;P1;durP1;ratioP1;P2;durP2;ratioP2
50976;SDS011;36992;48.200;12.418;2023-08-30T00:00:52;0.65;;;0.32;;
50976;SDS011;36992;48.200;12.418;2023-08-30T00:03:19;0.88;;;0.50;;
50976;SDS011;36992;48.200;12.418;2023-08-30T00:05:45;0.88;;;0.43;;
50976;SDS011;36992;48.200;12.418;2023-08-30T00:08:12;1.38;;;0.60;;
50976;SDS011;36992;48.200;12.418;2023-08-30T00:10:44;1.48;;;0.60;;
50976;SDS011;36992;48.200;12.418;2023-08-30T00:13:11;1.13;;;0.68;;
50976;SDS011;36992;48.200;12.418;2023-08-30T00:15:38;2.58;;;0.65;;
50976;SDS011;36992;48.200;12.418;2023-08-30T00:18:05;1.63;;;0.50;;
50976;SDS011;36992;48.200;12.418;2023-08-30T00:20:31;1.77;;;0.88;;
50976;SDS011;36992;48.200;12.418;2023-08-30T00:22:58;3.28;;;0.80;;
50976;SDS011;36992;48.200;12.418;2023-08-30T00:25:24;1.88;;;1.00;;
50976;SDS011;36992;48.200;12.418;2023-08-30T00:27:52;1.45;;;0.90;;
50976;SDS011;36992;48.200;12.418;2023-08-30T00:30:19;1.50;;;0.93;;
50976;SDS011;36992;48.200;12.418;2023-08-30T00:32:45;1.08;;;0.68;;
50976;SDS011;36992;48.200;12.418;2023-08-30T00:35:12;1.65;;;0.85;;
50976;SDS011;36992;48.200;12.418;2023-08-30T00:37:38;2.10;;;0.93;;
50976;SDS011;36992;48.200;12.418;2023-08-30T00:40:05;1.23;;;0.63;;
50976;SDS011;36992;48.200;12.418;2023-08-30T00:42:32;2.35;;;1.02;;
50976;SDS011;36992;48.200;12.418;2023-08-30T00:45:00;1.58;;;1.05;;
50976;SDS011;36992;48.200;12.418;2023-08-30T00:47:27;1.55;;;0.88;;
50976;SDS011;36992;48.200;12.418;2023-08-30T00:49:54;1.58;;;0.90;;
50976;SDS011;36992;48.200;12.418;2023-08-30T00:52:20;1.33;;;0.82;;
50976;SDS011;36992;48.200;12.418;2023-08-30T00:54:47;3.35;;;1.70;;
50976;SDS011;36992;48.200;12.418;2023-08-30T00:57:14;2.42;;;1.10;;
50976;SDS011;36992;48.200;12.418;2023-08-30T00:59:41;1.70;;;1.08;;
50976;SDS011;36992;48.200;12.418;2023-08-30T01:02:09;2.17;;;0.90;;
50976;SDS011;36992;48.200;12.418;2023-08-30T01:04:36;1.73;;;0.90;;
50976;SDS011;36992;48.200;12.418;2023-08-30T01:07:02;2.38;;;1.20;;
50976;SDS011;36992;48.200;12.418;2023-08-30T01:09:29;1.63;;;1.10;;
50976;SDS011;36992;48.200;12.418;2023-08-30T01:11:57;1.92;;;1.00;;
50976;SDS011;36992;48.200;12.418;2023-08-30T01:14:29;2.20;;;1.38;;
50976;SDS011;36992;48.200;12.418;2023-08-30T01:17:00;1.80;;;1.02;;
50976;SDS011;36992;48.200;12.418;2023-08-30T01:19:34;1.38;;;1.00;;
50976;SDS011;36992;48.200;12.418;2023-08-30T01:22:14;1.90;;;1.10;;
50976;SDS011;36992;48.200;12.418;2023-08-30T01:24:44;2.90;;;1.15;;
50976;SDS011;36992;48.200;12.418;2023-08-30T01:27:16;1.05;;;0.68;;
50976;SDS011;36992;48.200;12.418;2023-08-30T01:29:44;1.80;;;0.80;;
50976;SDS011;36992;48.200;12.418;2023-08-30T01:32:12;2.35;;;0.82;;
50976;SDS011;36992;48.200;12.418;2023-08-30T01:34:39;2.22;;;0.90;;
50976;SDS011;36992;48.200;12.418;2023-08-30T01:37:08;4.63;;;1.10;;
50976;SDS011;36992;48.200;12.418;2023-08-30T01:39:36;2.05;;;0.90;;
50976;SDS011;36992;48.200;12.418;2023-08-30T01:42:06;3.08;;;1.70;;
50976;SDS011;36992;48.200;12.418;2023-08-30T01:44:35;1.65;;;0.70;;
50976;SDS011;36992;48.200;12.418;2023-08-30T01:47:02;1.20;;;0.70;;
50976;SDS011;36992;48.200;12.418;2023-08-30T01:49:30;1.63;;;0.80;;
50976;SDS011;36992;48.200;12.418;2023-08-30T01:51:58;1.55;;;0.90;;
50976;SDS011;36992;48.200;12.418;2023-08-30T01:54:25;1.70;;;0.90;;
50976;SDS011;36992;48.200;12.418;2023-08-30T01:56:53;1.52;;;0.80;;
50976;SDS011;36992;48.200;12.418;2023-08-30T01:59:20;1.55;;;0.50;;
50976;SDS011;36992;48.200;12.418;2023-08-30T02:01:48;1.52;;;0.88;;
50976;SDS011;36992;48.200;12.418;2023-08-30T02:04:14;1.60;;;0.93;;
50976;SDS011;36992;48.200;12.418;2023-08-30T02:06:42;0.98;;;0.50;;
50976;SDS011;36992;48.200;12.418;2023-08-30T02:09:17;1.35;;;0.80;;
50976;SDS011;36992;48.200;12.418;2023-08-30T02:11:47;2.42;;;0.60;;
50976;SDS011;36992;48.200;12.418;2023-08-30T02:14:17;1.10;;;0.70;;
50976;SDS011;36992;48.200;12.418;2023-08-30T02:16:44;1.77;;;0.82;;
50976;SDS011;36992;48.200;12.418;2023-08-30T02:19:13;2.28;;;1.17;;
50976;SDS011;36992;48.200;12.418;2023-08-30T02:21:42;1.40;;;0.73;;
50976;SDS011;36992;48.200;12.418;2023-08-30T02:24:09;1.73;;;1.08;;
50976;SDS011;36992;48.200;12.418;2023-08-30T02:26:36;1.88;;;1.05;;
50976;SDS011;36992;48.200;12.418;2023-08-30T02:29:02;1.23;;;0.70;;
50976;SDS011;36992;48.200;12.418;2023-08-30T02:31:29;1.65;;;0.95;;
50976;SDS011;36992;48.200;12.418;2023-08-30T02:33:56;1.80;;;0.88;;
50976;SDS011;36992;48.200;12.418;2023-08-30T02:36:23;1.63;;;0.85;;
50976;SDS011;36992;48.200;12.418;2023-08-30T02:38:50;1.95;;;0.70;;
50976;SDS011;36992;48.200;12.418;2023-08-30T02:41:17;1.23;;;0.73;;
50976;SDS011;36992;48.200;12.418;2023-08-30T02:43:43;2.45;;;0.80;;
50976;SDS011;36992;48.200;12.418;2023-08-30T02:46:09;2.00;;;0.80;;
50976;SDS011;36992;48.200;12.418;2023-08-30T02:48:36;1.60;;;0.77;;
50976;SDS011;36992;48.200;12.418;2023-08-30T02:51:02;1.58;;;0.70;;
50976;SDS011;36992;48.200;12.418;2023-08-30T02:53:30;2.08;;;1.17;;
50976;SDS011;36992;48.200;12.418;2023-08-30T02:55:57;1.73;;;1.00;;
50976;SDS011;36992;48.200;12.418;2023-08-30T02:58:23;1.67;;;1.00;;
50976;SDS011;36992;48.200;12.418;2023-08-30T03:00:50;1.98;;;0.90;;
50976;SDS011;36992;48.200;12.418;2023-08-30T03:03:16;1.83;;;1.00;;
50976;SDS011;36992;48.200;12.418;2023-08-30T03:05:43;1.60;;;0.80;;
50976;SDS011;36992;48.200;12.418;2023-08-30T03:08:09;2.63;;;0.93;;
50976;SDS011;36992;48.200;12.418;2023-08-30T03:10:37;2.00;;;1.10;;
50976;SDS011;36992;48.200;12.418;2023-08-30T03:13:03;1.80;;;1.05;;
50976;SDS011;36992;48.200;12.418;2023-08-30T03:15:30;1.83;;;1.02;;
50976;SDS011;36992;48.200;12.418;2023-08-30T03:17:57;1.33;;;0.80;;
50976;SDS011;36992;48.200;12.418;2023-08-30T03:20:23;2.20;;;1.20;;
50976;SDS011;36992;48.200;12.418;2023-08-30T03:22:50;2.03;;;1.20;;
50976;SDS011;36992;48.200;12.418;2023-08-30T03:25:16;1.40;;;0.75;;
50976;SDS011;36992;48.200;12.418;2023-08-30T03:27:45;1.52;;;0.85;;
50976;SDS011;36992;48.200;12.418;2023-08-30T03:30:11;2.30;;;1.30;;
50976;SDS011;36992;48.200;12.418;2023-08-30T03:32:38;1.85;;;0.85;;
50976;SDS011;36992;48.200;12.418;2023-08-30T03:35:05;2.30;;;1.02;;
50976;SDS011;36992;48.200;12.418;2023-08-30T03:37:33;1.67;;;0.73;;
50976;SDS011;36992;48.200;12.418;2023-08-30T03:39:59;1.75;;;0.98;;
50976;SDS011;36992;48.200;12.418;2023-08-30T03:42:27;1.95;;;1.05;;
50976;SDS011;36992;48.200;12.418;2023-08-30T03:44:54;1.77;;;1.00;;
50976;SDS011;36992;48.200;12.418;2023-08-30T03:47:21;1.48;;;1.13;;
50976;SDS011;36992;48.200;12.418;2023-08-30T03:49:48;1.75;;;1.00;;
50976;SDS011;36992;48.200;12.418;2023-08-30T03:52:14;2.22;;;0.90;;
50976;SDS011;36992;48.200;12.418;2023-08-30T03:54:41;1.77;;;1.05;;
50976;SDS011;36992;48.200;12.418;2023-08-30T03:57:07;1.92;;;1.08;;
50976;SDS011;36992;48.200;12.418;2023-08-30T03:59:34;2.08;;;1.08;;
50976;SDS011;36992;48.200;12.418;2023-08-30T04:02:01;2.88;;;1.10;;
50976;SDS011;36992;48.200;12.418;2023-08-30T04:04:28;3.22;;;0.85;;
50976;SDS011;36992;48.200;12.418;2023-08-30T04:06:55;3.80;;;1.33;;
50976;SDS011;36992;48.200;12.418;2023-08-30T04:09:21;2.03;;;1.17;;
50976;SDS011;36992;48.200;12.418;2023-08-30T04:11:48;1.77;;;0.93;;
50976;SDS011;36992;48.200;12.418;2023-08-30T04:14:14;2.50;;;1.67;;
50976;SDS011;36992;48.200;12.418;2023-08-30T04:16:41;2.92;;;1.75;;
50976;SDS011;36992;48.200;12.418;2023-08-30T04:19:08;2.65;;;1.02;;
50976;SDS011;36992;48.200;12.418;2023-08-30T04:21:35;2.42;;;1.67;;
50976;SDS011;36992;48.200;12.418;2023-08-30T04:24:02;2.08;;;1.35;;
50976;SDS011;36992;48.200;12.418;2023-08-30T04:26:28;2.05;;;1.30;;
50976;SDS011;36992;48.200;12.418;2023-08-30T04:28:55;2.20;;;1.40;;
50976;SDS011;36992;48.200;12.418;2023-08-30T04:31:21;2.90;;;1.90;;
50976;SDS011;36992;48.200;12.418;2023-08-30T04:33:48;2.55;;;1.40;;
50976;SDS011;36992;48.200;12.418;2023-08-30T04:36:16;2.92;;;2.10;;
50976;SDS011;36992;48.200;12.418;2023-08-30T04:38:42;2.33;;;1.52;;
50976;SDS011;36992;48.200;12.418;2023-08-30T04:41:09;2.53;;;1.83;;
50976;SDS011;36992;48.200;12.418;2023-08-30T04:43:36;2.45;;;1.35;;
50976;SDS011;36992;48.200;12.418;2023-08-30T04:46:02;2.47;;;1.80;;
50976;SDS011;36992;48.200;12.418;2023-08-30T04:48:29;2.40;;;1.77;;
50976;SDS011;36992;48.200;12.418;2023-08-30T04:50:59;2.63;;;1.70;;
50976;SDS011;36992;48.200;12.418;2023-08-30T04:53:28;3.35;;;1.27;;
50976;SDS011;36992;48.200;12.418;2023-08-30T04:55:54;2.15;;;1.38;;
50976;SDS011;36992;48.200;12.418;2023-08-30T04:58:21;3.35;;;2.45;;
50976;SDS011;36992;48.200;12.418;2023-08-30T05:00:48;3.75;;;2.58;;
50976;SDS011;36992;48.200;12.418;2023-08-30T05:03:14;2.85;;;2.03;;
50976;SDS011;36992;48.200;12.418;2023-08-30T05:05:44;5.38;;;2.25;;
50976;SDS011;36992;48.200;12.418;2023-08-30T05:08:11;3.25;;;2.10;;
50976;SDS011;36992;48.200;12.418;2023-08-30T05:10:39;2.45;;;1.55;;
50976;SDS011;36992;48.200;12.418;2023-08-30T05:13:06;2.83;;;1.60;;
50976;SDS011;36992;48.200;12.418;2023-08-30T05:15:32;2.90;;;1.98;;
50976;SDS011;36992;48.200;12.418;2023-08-30T05:17:59;3.33;;;2.50;;
50976;SDS011;36992;48.200;12.418;2023-08-30T05:20:25;5.35;;;2.58;;
50976;SDS011;36992;48.200;12.418;2023-08-30T05:22:52;2.90;;;1.75;;
50976;SDS011;36992;48.200;12.418;2023-08-30T05:25:18;2.67;;;2.25;;
50976;SDS011;36992;48.200;12.418;2023-08-30T05:27:46;2.78;;;1.83;;
50976;SDS011;36992;48.200;12.418;2023-08-30T05:30:13;2.17;;;1.45;;
50976;SDS011;36992;48.200;12.418;2023-08-30T05:32:40;2.38;;;1.60;;
50976;SDS011;36992;48.200;12.418;2023-08-30T05:35:07;3.40;;;2.53;;
50976;SDS011;36992;48.200;12.418;2023-08-30T05:37:33;3.40;;;2.55;;
50976;SDS011;36992;48.200;12.418;2023-08-30T05:40:00;4.30;;;2.42;;
50976;SDS011;36992;48.200;12.418;2023-08-30T05:42:27;4.13;;;2.35;;
50976;SDS011;36992;48.200;12.418;2023-08-30T05:44:55;4.25;;;2.75;;
50976;SDS011;36992;48.200;12.418;2023-08-30T05:47:22;14.75;;;3.92;;
50976;SDS011;36992;48.200;12.418;2023-08-30T05:49:48;2.80;;;1.73;;
50976;SDS011;36992;48.200;12.418;2023-08-30T05:52:15;2.80;;;1.65;;
50976;SDS011;36992;48.200;12.418;2023-08-30T05:54:43;4.82;;;2.17;;
50976;SDS011;36992;48.200;12.418;2023-08-30T05:57:09;4.18;;;2.95;;
50976;SDS011;36992;48.200;12.418;2023-08-30T05:59:36;2.92;;;2.03;;
50976;SDS011;36992;48.200;12.418;2023-08-30T06:02:04;2.25;;;1.40;;
50976;SDS011;36992;48.200;12.418;2023-08-30T06:04:30;2.63;;;1.60;;
50976;SDS011;36992;48.200;12.418;2023-08-30T06:06:57;2.85;;;1.83;;
50976;SDS011;36992;48.200;12.418;2023-08-30T06:09:23;3.20;;;1.80;;
50976;SDS011;36992;48.200;12.418;2023-08-30T06:11:50;3.83;;;2.17;;
50976;SDS011;36992;48.200;12.418;2023-08-30T06:14:16;3.83;;;2.53;;
50976;SDS011;36992;48.200;12.418;2023-08-30T06:16:43;2.90;;;2.22;;
50976;SDS011;36992;48.200;12.418;2023-08-30T06:19:10;2.97;;;2.17;;
50976;SDS011;36992;48.200;12.418;2023-08-30T06:21:37;3.80;;;2.50;;
50976;SDS011;36992;48.200;12.418;2023-08-30T06:24:04;4.20;;;3.08;;
50976;SDS011;36992;48.200;12.418;2023-08-30T06:26:31;2.45;;;1.83;;
50976;SDS011;36992;48.200;12.418;2023-08-30T06:28:57;3.67;;;2.10;;
50976;SDS011;36992;48.200;12.418;2023-08-30T06:31:24;3.20;;;2.15;;
50976;SDS011;36992;48.200;12.418;2023-08-30T06:33:51;3.92;;;2.92;;
50976;SDS011;36992;48.200;12.418;2023-08-30T06:36:19;3.72;;;2.63;;
50976;SDS011;36992;48.200;12.418;2023-08-30T06:38:47;3.78;;;2.80;;
50976;SDS011;36992;48.200;12.418;2023-08-30T06:41:14;4.25;;;3.03;;
50976;SDS011;36992;48.200;12.418;2023-08-30T06:43:41;3.63;;;2.55;;
50976;SDS011;36992;48.200;12.418;2023-08-30T06:46:07;3.15;;;2.05;;
50976;SDS011;36992;48.200;12.418;2023-08-30T06:48:34;3.33;;;2.75;;
50976;SDS011;36992;48.200;12.418;2023-08-30T06:51:00;4.35;;;3.45;;
50976;SDS011;36992;48.200;12.418;2023-08-30T06:53:28;4.13;;;3.00;;
50976;SDS011;36992;48.200;12.418;2023-08-30T06:55:58;3.80;;;2.95;;
50976;SDS011;36992;48.200;12.418;2023-08-30T06:58:25;2.80;;;1.83;;
50976;SDS011;36992;48.200;12.418;2023-08-30T07:00:51;4.35;;;3.13;;
50976;SDS011;36992;48.200;12.418;2023-08-30T07:03:18;5.40;;;3.15;;
50976;SDS011;36992;48.200;12.418;2023-08-30T07:05:45;6.55;;;4.50;;
50976;SDS011;36992;48.200;12.418;2023-08-30T07:08:13;6.78;;;3.97;;
50976;SDS011;36992;48.200;12.418;2023-08-30T07:10:41;4.38;;;3.58;;
50976;SDS011;36992;48.200;12.418;2023-08-30T07:13:08;3.80;;;3.17;;
50976;SDS011;36992;48.200;12.418;2023-08-30T07:15:36;4.82;;;3.80;;
50976;SDS011;36992;48.200;12.418;2023-08-30T07:18:04;5.68;;;2.58;;
50976;SDS011;36992;48.200;12.418;2023-08-30T07:20:31;4.00;;;2.92;;
50976;SDS011;36992;48.200;12.418;2023-08-30T07:22:57;3.38;;;2.45;;
50976;SDS011;36992;48.200;12.418;2023-08-30T07:25:24;4.00;;;3.17;;
50976;SDS011;36992;48.200;12.418;2023-08-30T07:27:52;2.97;;;2.05;;
50976;SDS011;36992;48.200;12.418;2023-08-30T07:30:18;2.78;;;1.85;;
50976;SDS011;36992;48.200;12.418;2023-08-30T07:32:45;7.55;;;3.45;;
50976;SDS011;36992;48.200;12.418;2023-08-30T07:35:12;3.58;;;2.30;;
50976;SDS011;36992;48.200;12.418;2023-08-30T07:37:39;4.80;;;3.50;;
50976;SDS011;36992;48.200;12.418;2023-08-30T07:40:06;4.85;;;3.72;;
50976;SDS011;36992;48.200;12.418;2023-08-30T07:42:33;5.70;;;4.15;;
50976;SDS011;36992;48.200;12.418;2023-08-30T07:45:01;5.45;;;4.25;;
50976;SDS011;36992;48.200;12.418;2023-08-30T07:47:29;4.47;;;3.63;;
50976;SDS011;36992;48.200;12.418;2023-08-30T07:49:55;5.30;;;3.22;;
50976;SDS011;36992;48.200;12.418;2023-08-30T07:52:22;5.65;;;4.35;;
50976;SDS011;36992;48.200;12.418;2023-08-30T07:54:48;5.07;;;4.50;;
50976;SDS011;36992;48.200;12.418;2023-08-30T07:57:15;5.32;;;4.22;;
50976;SDS011;36992;48.200;12.418;2023-08-30T07:59:42;5.35;;;3.55;;
50976;SDS011;36992;48.200;12.418;2023-08-30T08:02:09;4.70;;;3.22;;
50976;SDS011;36992;48.200;12.418;2023-08-30T08:04:36;4.88;;;4.03;;
50976;SDS011;36992;48.200;12.418;2023-08-30T08:07:03;4.13;;;3.20;;
50976;SDS011;36992;48.200;12.418;2023-08-30T08:09:30;5.30;;;3.92;;
50976;SDS011;36992;48.200;12.418;2023-08-30T08:11:57;4.18;;;3.40;;
50976;SDS011;36992;48.200;12.418;2023-08-30T08:14:23;5.05;;;3.92;;
50976;SDS011;36992;48.200;12.418;2023-08-30T08:16:50;4.10;;;2.90;;
50976;SDS011;36992;48.200;12.418;2023-08-30T08:19:18;3.33;;;2.65;;
50976;SDS011;36992;48.200;12.418;2023-08-30T08:21:45;3.92;;;2.65;;
50976;SDS011;36992;48.200;12.418;2023-08-30T08:24:12;2.72;;;2.08;;
50976;SDS011;36992;48.200;12.418;2023-08-30T08:26:38;4.30;;;3.08;;
50976;SDS011;36992;48.200;12.418;2023-08-30T08:29:05;3.00;;;2.50;;
50976;SDS011;36992;48.200;12.418;2023-08-30T08:31:31;3.35;;;2.75;;
50976;SDS011;36992;48.200;12.418;2023-08-30T08:34:08;4.10;;;2.97;;
50976;SDS011;36992;48.200;12.418;2023-08-30T08:36:37;4.50;;;3.17;;
50976;SDS011;36992;48.200;12.418;2023-08-30T08:39:04;6.43;;;3.50;;
50976;SDS011;36992;48.200;12.418;2023-08-30T08:41:35;3.97;;;3.08;;
50976;SDS011;36992;48.200;12.418;2023-08-30T08:44:04;3.72;;;3.03;;
50976;SDS011;36992;48.200;12.418;2023-08-30T08:46:32;4.03;;;2.63;;
50976;SDS011;36992;48.200;12.418;2023-08-30T08:49:02;3.08;;;2.10;;
50976;SDS011;36992;48.200;12.418;2023-08-30T08:51:36;2.22;;;1.45;;
50976;SDS011;36992;48.200;12.418;2023-08-30T08:54:04;2.78;;;1.80;;
50976;SDS011;36992;48.200;12.418;2023-08-30T08:56:31;2.22;;;1.88;;
50976;SDS011;36992;48.200;12.418;2023-08-30T08:58:59;3.78;;;1.77;;
50976;SDS011;36992;48.200;12.418;2023-08-30T09:01:26;2.88;;;1.70;;
50976;SDS011;36992;48.200;12.418;2023-08-30T09:03:53;2.20;;;1.17;;
50976;SDS011;36992;48.200;12.418;2023-08-30T09:06:20;1.38;;;0.88;;
50976;SDS011;36992;48.200;12.418;2023-08-30T09:08:48;3.28;;;1.20;;
50976;SDS011;36992;48.200;12.418;2023-08-30T09:11:15;2.78;;;1.00;;
50976;SDS011;36992;48.200;12.418;2023-08-30T09:13:42;2.38;;;1.05;;
50976;SDS011;36992;48.200;12.418;2023-08-30T09:16:12;2.42;;;1.30;;
50976;SDS011;36992;48.200;12.418;2023-08-30T09:18:39;2.17;;;1.35;;
50976;SDS011;36992;48.200;12.418;2023-08-30T09:21:06;2.42;;;1.20;;
50976;SDS011;36992;48.200;12.418;2023-08-30T09:23:33;2.35;;;1.00;;
50976;SDS011;36992;48.200;12.418;2023-08-30T09:26:02;2.20;;;1.30;;
50976;SDS011;36992;48.200;12.418;2023-08-30T09:28:28;1.77;;;0.77;;
50976;SDS011;36992;48.200;12.418;2023-08-30T09:30:57;1.67;;;0.90;;
50976;SDS011;36992;48.200;12.418;2023-08-30T09:33:29;2.45;;;1.27;;
50976;SDS011;36992;48.200;12.418;2023-08-30T09:41:55;1.20;;;0.50;;
50976;SDS011;36992;48.200;12.418;2023-08-30T09:44:21;1.30;;;0.60;;
50976;SDS011;36992;48.200;12.418;2023-08-30T09:46:50;3.17;;;0.70;;
50976;SDS011;36992;48.200;12.418;2023-08-30T09:49:18;0.95;;;0.60;;
50976;SDS011;36992;48.200;12.418;2023-08-30T09:51:45;1.20;;;0.70;;
50976;SDS011;36992;48.200;12.418;2023-08-30T09:54:13;1.67;;;0.60;;
50976;SDS011;36992;48.200;12.418;2023-08-30T09:56:42;1.23;;;0.50;;
50976;SDS011;36992;48.200;12.418;2023-08-30T09:59:11;1.27;;;0.65;;
50976;SDS011;36992;48.200;12.418;2023-08-30T10:01:39;1.90;;;0.70;;
50976;SDS011;36992;48.200;12.418;2023-08-30T10:04:07;1.80;;;0.70;;
50976;SDS011;36992;48.200;12.418;2023-08-30T10:06:34;1.50;;;0.70;;
50976;SDS011;36992;48.200;12.418;2023-08-30T10:09:01;1.13;;;0.60;;
50976;SDS011;36992;48.200;12.418;2023-08-30T10:11:28;1.95;;;0.57;;
50976;SDS011;36992;48.200;12.418;2023-08-30T10:13:58;1.73;;;0.47;;
50976;SDS011;36992;48.200;12.418;2023-08-30T10:16:26;0.90;;;0.30;;
50976;SDS011;36992;48.200;12.418;2023-08-30T10:18:59;0.93;;;0.50;;
50976;SDS011;36992;48.200;12.418;2023-08-30T10:21:29;1.35;;;0.65;;
50976;SDS011;36992;48.200;12.418;2023-08-30T10:23:56;1.05;;;0.57;;
50976;SDS011;36992;48.200;12.418;2023-08-30T10:26:25;1.70;;;0.50;;
50976;SDS011;36992;48.200;12.418;2023-08-30T10:28:54;3.28;;;0.80;;
50976;SDS011;36992;48.200;12.418;2023-08-30T10:31:22;1.83;;;0.60;;
50976;SDS011;36992;48.200;12.418;2023-08-30T10:33:52;1.75;;;0.73;;
50976;SDS011;36992;48.200;12.418;2023-08-30T10:36:20;0.98;;;0.50;;
50976;SDS011;36992;48.200;12.418;2023-08-30T10:38:48;1.08;;;0.50;;
50976;SDS011;36992;48.200;12.418;2023-08-30T10:41:19;1.60;;;0.32;;
50976;SDS011;36992;48.200;12.418;2023-08-30T10:43:49;2.53;;;0.30;;
50976;SDS011;36992;48.200;12.418;2023-08-30T10:46:17;2.00;;;0.40;;
50976;SDS011;36992;48.200;12.418;2023-08-30T10:49:07;0.65;;;0.30;;
50976;SDS011;36992;48.200;12.418;2023-08-30T10:51:35;1.88;;;0.47;;
50976;SDS011;36992;48.200;12.418;2023-08-30T10:54:09;1.08;;;0.40;;
50976;SDS011;36992;48.200;12.418;2023-08-30T10:56:45;0.67;;;0.37;;
50976;SDS011;36992;48.200;12.418;2023-08-30T10:59:16;2.03;;;0.52;;
50976;SDS011;36992;48.200;12.418;2023-08-30T11:01:44;0.93;;;0.30;;
50976;SDS011;36992;48.200;12.418;2023-08-30T11:04:14;0.93;;;0.20;;
50976;SDS011;36992;48.200;12.418;2023-08-30T11:06:42;1.33;;;0.35;;
50976;SDS011;36992;48.200;12.418;2023-08-30T11:09:09;1.83;;;0.30;;
50976;SDS011;36992;48.200;12.418;2023-08-30T11:11:36;0.73;;;0.20;;
50976;SDS011;36992;48.200;12.418;2023-08-30T11:14:03;0.80;;;0.30;;
50976;SDS011;36992;48.200;12.418;2023-08-30T11:16:30;0.70;;;0.30;;
50976;SDS011;36992;48.200;12.418;2023-08-30T11:18:58;0.65;;;0.20;;
50976;SDS011;36992;48.200;12.418;2023-08-30T11:21:25;1.27;;;0.20;;
50976;SDS011;36992;48.200;12.418;2023-08-30T11:23:52;1.50;;;0.30;;
50976;SDS011;36992;48.200;12.418;2023-08-30T11:26:18;0.82;;;0.20;;
50976;SDS011;36992;48.200;12.418;2023-08-30T11:28:45;1.02;;;0.30;;
50976;SDS011;36992;48.200;12.418;2023-08-30T11:31:17;0.70;;;0.20;;
50976;SDS011;36992;48.200;12.418;2023-08-30T11:33:49;1.02;;;0.28;;
50976;SDS011;36992;48.200;12.418;2023-08-30T11:36:17;0.50;;;0.20;;
50976;SDS011;36992;48.200;12.418;2023-08-30T11:38:46;1.52;;;0.20;;
50976;SDS011;36992;48.200;12.418;2023-08-30T11:41:12;0.70;;;0.10;;
50976;SDS011;36992;48.200;12.418;2023-08-30T11:43:39;3.72;;;0.40;;
50976;SDS011;36992;48.200;12.418;2023-08-30T11:46:06;0.65;;;0.20;;
50976;SDS011;36992;48.200;12.418;2023-08-30T11:48:34;0.90;;;0.20;;
50976;SDS011;36992;48.200;12.418;2023-08-30T11:51:01;0.40;;;0.10;;
50976;SDS011;36992;48.200;12.418;2023-08-30T11:53:27;0.70;;;0.30;;
50976;SDS011;36992;48.200;12.418;2023-08-30T11:55:56;0.70;;;0.25;;
50976;SDS011;36992;48.200;12.418;2023-08-30T11:58:23;0.82;;;0.20;;
50976;SDS011;36992;48.200;12.418;2023-08-30T12:00:49;0.57;;;0.20;;
50976;SDS011;36992;48.200;12.418;2023-08-30T12:03:18;0.80;;;0.30;;
50976;SDS011;36992;48.200;12.418;2023-08-30T12:05:45;1.52;;;0.40;;
50976;SDS011;36992;48.200;12.418;2023-08-30T12:08:17;1.67;;;0.40;;
50976;SDS011;36992;48.200;12.418;2023-08-30T12:10:44;0.70;;;0.25;;
50976;SDS011;36992;48.200;12.418;2023-08-30T12:13:20;0.90;;;0.32;;
50976;SDS011;36992;48.200;12.418;2023-08-30T12:15:47;1.90;;;0.50;;
50976;SDS011;36992;48.200;12.418;2023-08-30T12:18:14;1.85;;;0.40;;
50976;SDS011;36992;48.200;12.418;2023-08-30T12:20:50;0.70;;;0.30;;
50976;SDS011;36992;48.200;12.418;2023-08-30T12:23:21;1.38;;;0.40;;
50976;SDS011;36992;48.200;12.418;2023-08-30T12:25:58;1.30;;;0.57;;
50976;SDS011;36992;48.200;12.418;2023-08-30T12:28:27;1.35;;;0.20;;
50976;SDS011;36992;48.200;12.418;2023-08-30T12:30:55;1.27;;;0.22;;
50976;SDS011;36992;48.200;12.418;2023-08-30T12:33:21;1.38;;;0.20;;
50976;SDS011;36992;48.200;12.418;2023-08-30T12:35:50;0.55;;;0.20;;
50976;SDS011;36992;48.200;12.418;2023-08-30T12:38:16;0.60;;;0.20;;
50976;SDS011;36992;48.200;12.418;2023-08-30T12:40:44;0.70;;;0.20;;
50976;SDS011;36992;48.200;12.418;2023-08-30T12:43:11;0.60;;;0.17;;
50976;SDS011;36992;48.200;12.418;2023-08-30T12:45:39;0.43;;;0.20;;
50976;SDS011;36992;48.200;12.418;2023-08-30T12:48:06;0.45;;;0.15;;
50976;SDS011;36992;48.200;12.418;2023-08-30T12:50:33;1.77;;;0.20;;
50976;SDS011;36992;48.200;12.418;2023-08-30T12:53:01;0.82;;;0.30;;
50976;SDS011;36992;48.200;12.418;2023-08-30T12:55:28;1.88;;;0.10;;
50976;SDS011;36992;48.200;12.418;2023-08-30T12:57:55;0.50;;;0.20;;
50976;SDS011;36992;48.200;12.418;2023-08-30T13:00:22;0.40;;;0.10;;
50976;SDS011;36992;48.200;12.418;2023-08-30T13:02:50;1.08;;;0.20;;
50976;SDS011;36992;48.200;12.418;2023-08-30T13:05:16;1.45;;;0.65;;
50976;SDS011;36992;48.200;12.418;2023-08-30T13:07:43;0.45;;;0.13;;
50976;SDS011;36992;48.200;12.418;2023-08-30T13:10:10;0.90;;;0.30;;
50976;SDS011;36992;48.200;12.418;2023-08-30T13:12:37;0.80;;;0.22;;
50976;SDS011;36992;48.200;12.418;2023-08-30T13:15:05;0.52;;;0.20;;
50976;SDS011;36992;48.200;12.418;2023-08-30T13:17:32;2.70;;;0.40;;
50976;SDS011;36992;48.200;12.418;2023-08-30T13:20:00;1.02;;;0.30;;
50976;SDS011;36992;48.200;12.418;2023-08-30T13:22:27;1.30;;;0.30;;
50976;SDS011;36992;48.200;12.418;2023-08-30T13:24:53;0.70;;;0.20;;
50976;SDS011;36992;48.200;12.418;2023-08-30T13:27:20;0.52;;;0.20;;
50976;SDS011;36992;48.200;12.418;2023-08-30T13:29:46;0.75;;;0.30;;
50976;SDS011;36992;48.200;12.418;2023-08-30T13:32:13;0.43;;;0.20;;
50976;SDS011;36992;48.200;12.418;2023-08-30T13:34:40;0.70;;;0.20;;
50976;SDS011;36992;48.200;12.418;2023-08-30T13:37:10;0.85;;;0.20;;
50976;SDS011;36992;48.200;12.418;2023-08-30T13:39:37;0.40;;;0.20;;
50976;SDS011;36992;48.200;12.418;2023-08-30T13:42:03;0.70;;;0.20;;
50976;SDS011;36992;48.200;12.418;2023-08-30T13:44:30;0.32;;;0.13;;
50976;SDS011;36992;48.200;12.418;2023-08-30T13:46:57;0.50;;;0.20;;
50976;SDS011;36992;48.200;12.418;2023-08-30T13:49:24;0.43;;;0.10;;
50976;SDS011;36992;48.200;12.418;2023-08-30T13:51:52;0.70;;;0.22;;
50976;SDS011;36992;48.200;12.418;2023-08-30T13:54:20;0.40;;;0.10;;
50976;SDS011;36992;48.200;12.418;2023-08-30T13:56:47;0.60;;;0.20;;
50976;SDS011;36992;48.200;12.418;2023-08-30T13:59:13;0.35;;;0.10;;
50976;SDS011;36992;48.200;12.418;2023-08-30T14:01:39;0.75;;;0.20;;
50976;SDS011;36992;48.200;12.418;2023-08-30T14:04:06;0.25;;;0.10;;
50976;SDS011;36992;48.200;12.418;2023-08-30T14:06:33;0.65;;;0.10;;
50976;SDS011;36992;48.200;12.418;2023-08-30T14:08:59;0.75;;;0.10;;
50976;SDS011;36992;48.200;12.418;2023-08-30T14:11:27;1.08;;;0.15;;
50976;SDS011;36992;48.200;12.418;2023-08-30T14:13:54;0.55;;;0.10;;
50976;SDS011;36992;48.200;12.418;2023-08-30T14:16:21;0.70;;;0.20;;
50976;SDS011;36992;48.200;12.418;2023-08-30T14:18:47;0.75;;;0.13;;
50976;SDS011;36992;48.200;12.418;2023-08-30T14:21:15;1.60;;;0.10;;
50976;SDS011;36992;48.200;12.418;2023-08-30T14:23:42;0.60;;;0.30;;
50976;SDS011;36992;48.200;12.418;2023-08-30T14:26:08;1.60;;;0.20;;
50976;SDS011;36992;48.200;12.418;2023-08-30T14:28:39;0.45;;;0.10;;
50976;SDS011;36992;48.200;12.418;2023-08-30T14:31:06;1.42;;;0.20;;
50976;SDS011;36992;48.200;12.418;2023-08-30T14:33:33;0.68;;;0.25;;
50976;SDS011;36992;48.200;12.418;2023-08-30T14:36:00;1.48;;;0.20;;
50976;SDS011;36992;48.200;12.418;2023-08-30T14:38:27;0.68;;;0.20;;
50976;SDS011;36992;48.200;12.418;2023-08-30T14:40:54;0.68;;;0.20;;